sensor_id;sensor_type;location;lat;lon;timestamp;P1;durP1;ratioP1;P2;durP2;ratioP2
9520;SDS011;4798;41.574;23.734;2023-01-26T00:02:27;0.83;;;0.60;;
9520;SDS011;4798;41.574;23.734;2023-01-26T00:04:55;1.83;;;0.47;;
9520;SDS011;4798;41.574;23.734;2023-01-26T00:07:24;0.43;;;0.40;;
9520;SDS011;4798;41.574;23.734;2023-01-26T00:09:52;0.57;;;0.37;;
9520;SDS011;4798;41.574;23.734;2023-01-26T00:12:20;0.50;;;0.37;;
9520;SDS011;4798;41.574;23.734;2023-01-26T00:14:50;0.57;;;0.57;;
9520;SDS011;4798;41.574;23.734;2023-01-26T00:17:19;0.57;;;0.57;;
9520;SDS011;4798;41.574;23.734;2023-01-26T00:19:54;0.40;;;0.30;;
9520;SDS011;4798;41.574;23.734;2023-01-26T00:22:24;1.07;;;1.07;;
9520;SDS011;4798;41.574;23.734;2023-01-26T00:24:53;0.60;;;0.60;;
9520;SDS011;4798;41.574;23.734;2023-01-26T00:27:22;0.90;;;0.67;;
9520;SDS011;4798;41.574;23.734;2023-01-26T00:29:52;0.50;;;0.33;;
9520;SDS011;4798;41.574;23.734;2023-01-26T00:32:20;0.60;;;0.60;;
9520;SDS011;4798;41.574;23.734;2023-01-26T00:34:48;0.40;;;0.30;;
9520;SDS011;4798;41.574;23.734;2023-01-26T00:37:18;0.40;;;0.40;;
9520;SDS011;4798;41.574;23.734;2023-01-26T00:39:46;0.80;;;0.80;;
9520;SDS011;4798;41.574;23.734;2023-01-26T00:42:16;0.57;;;0.40;;
9520;SDS011;4798;41.574;23.734;2023-01-26T00:44:46;0.30;;;0.20;;
9520;SDS011;4798;41.574;23.734;2023-01-26T00:47:16;0.37;;;0.37;;
9520;SDS011;4798;41.574;23.734;2023-01-26T00:49:45;0.63;;;0.63;;
9520;SDS011;4798;41.574;23.734;2023-01-26T00:52:13;0.30;;;0.27;;
9520;SDS011;4798;41.574;23.734;2023-01-26T00:54:41;2.43;;;0.80;;
9520;SDS011;4798;41.574;23.734;2023-01-26T00:57:10;0.47;;;0.33;;
9520;SDS011;4798;41.574;23.734;2023-01-26T00:59:38;0.57;;;0.57;;
9520;SDS011;4798;41.574;23.734;2023-01-26T01:02:06;0.43;;;0.43;;
9520;SDS011;4798;41.574;23.734;2023-01-26T01:04:36;0.73;;;0.73;;
9520;SDS011;4798;41.574;23.734;2023-01-26T01:07:04;1.50;;;1.30;;
9520;SDS011;4798;41.574;23.734;2023-01-26T01:09:32;0.43;;;0.40;;
9520;SDS011;4798;41.574;23.734;2023-01-26T01:12:00;0.63;;;0.40;;
9520;SDS011;4798;41.574;23.734;2023-01-26T01:14:29;0.50;;;0.50;;
9520;SDS011;4798;41.574;23.734;2023-01-26T01:16:57;0.50;;;0.40;;
9520;SDS011;4798;41.574;23.734;2023-01-26T01:19:25;0.70;;;0.70;;
9520;SDS011;4798;41.574;23.734;2023-01-26T01:21:55;0.30;;;0.20;;
9520;SDS011;4798;41.574;23.734;2023-01-26T01:24:23;1.00;;;0.60;;
9520;SDS011;4798;41.574;23.734;2023-01-26T01:26:52;0.50;;;0.30;;
9520;SDS011;4798;41.574;23.734;2023-01-26T01:29:20;0.30;;;0.30;;
9520;SDS011;4798;41.574;23.734;2023-01-26T01:31:48;0.50;;;0.40;;
9520;SDS011;4798;41.574;23.734;2023-01-26T01:34:16;1.03;;;1.03;;
9520;SDS011;4798;41.574;23.734;2023-01-26T01:36:45;0.70;;;0.70;;
9520;SDS011;4798;41.574;23.734;2023-01-26T01:39:15;0.40;;;0.37;;
9520;SDS011;4798;41.574;23.734;2023-01-26T01:41:42;0.50;;;0.40;;
9520;SDS011;4798;41.574;23.734;2023-01-26T01:44:14;0.50;;;0.43;;
9520;SDS011;4798;41.574;23.734;2023-01-26T01:46:51;0.50;;;0.50;;
9520;SDS011;4798;41.574;23.734;2023-01-26T01:49:23;0.40;;;0.40;;
9520;SDS011;4798;41.574;23.734;2023-01-26T01:51:56;4.63;;;0.57;;
9520;SDS011;4798;41.574;23.734;2023-01-26T01:54:31;1.20;;;0.63;;
9520;SDS011;4798;41.574;23.734;2023-01-26T01:57:04;0.30;;;0.20;;
9520;SDS011;4798;41.574;23.734;2023-01-26T01:59:41;0.60;;;0.60;;
9520;SDS011;4798;41.574;23.734;2023-01-26T02:02:12;0.30;;;0.30;;
9520;SDS011;4798;41.574;23.734;2023-01-26T02:04:41;0.50;;;0.50;;
9520;SDS011;4798;41.574;23.734;2023-01-26T02:07:10;0.60;;;0.60;;
9520;SDS011;4798;41.574;23.734;2023-01-26T02:09:41;0.93;;;0.40;;
9520;SDS011;4798;41.574;23.734;2023-01-26T02:12:29;3.30;;;1.23;;
9520;SDS011;4798;41.574;23.734;2023-01-26T02:15:00;1.60;;;0.50;;
9520;SDS011;4798;41.574;23.734;2023-01-26T02:17:29;1.97;;;0.70;;
9520;SDS011;4798;41.574;23.734;2023-01-26T02:20:00;0.40;;;0.30;;
9520;SDS011;4798;41.574;23.734;2023-01-26T02:22:34;0.93;;;0.93;;
9520;SDS011;4798;41.574;23.734;2023-01-26T02:25:15;7.73;;;0.83;;
9520;SDS011;4798;41.574;23.734;2023-01-26T02:27:53;0.30;;;0.20;;
9520;SDS011;4798;41.574;23.734;2023-01-26T02:30:22;0.30;;;0.30;;
9520;SDS011;4798;41.574;23.734;2023-01-26T02:32:51;0.70;;;0.50;;
9520;SDS011;4798;41.574;23.734;2023-01-26T02:35:20;0.97;;;0.97;;
9520;SDS011;4798;41.574;23.734;2023-01-26T02:37:48;0.77;;;0.40;;
9520;SDS011;4798;41.574;23.734;2023-01-26T02:40:20;0.43;;;0.40;;
9520;SDS011;4798;41.574;23.734;2023-01-26T02:42:59;0.53;;;0.40;;
9520;SDS011;4798;41.574;23.734;2023-01-26T02:45:28;0.30;;;0.20;;
9520;SDS011;4798;41.574;23.734;2023-01-26T02:47:59;0.30;;;0.20;;
9520;SDS011;4798;41.574;23.734;2023-01-26T02:50:30;0.30;;;0.23;;
9520;SDS011;4798;41.574;23.734;2023-01-26T02:52:57;0.30;;;0.20;;
9520;SDS011;4798;41.574;23.734;2023-01-26T02:55:25;0.40;;;0.30;;
9520;SDS011;4798;41.574;23.734;2023-01-26T02:57:55;0.50;;;0.37;;
9520;SDS011;4798;41.574;23.734;2023-01-26T03:00:30;0.40;;;0.20;;
9520;SDS011;4798;41.574;23.734;2023-01-26T03:03:09;0.40;;;0.30;;
9520;SDS011;4798;41.574;23.734;2023-01-26T03:05:41;0.80;;;0.80;;
9520;SDS011;4798;41.574;23.734;2023-01-26T03:08:09;0.43;;;0.43;;
9520;SDS011;4798;41.574;23.734;2023-01-26T03:10:38;0.53;;;0.53;;
9520;SDS011;4798;41.574;23.734;2023-01-26T03:13:06;0.30;;;0.20;;
9520;SDS011;4798;41.574;23.734;2023-01-26T03:15:36;0.37;;;0.30;;
9520;SDS011;4798;41.574;23.734;2023-01-26T03:18:18;0.33;;;0.23;;
9520;SDS011;4798;41.574;23.734;2023-01-26T03:21:02;0.40;;;0.40;;
9520;SDS011;4798;41.574;23.734;2023-01-26T03:23:50;0.30;;;0.30;;
9520;SDS011;4798;41.574;23.734;2023-01-26T03:26:35;0.73;;;0.73;;
9520;SDS011;4798;41.574;23.734;2023-01-26T03:29:21;0.60;;;0.60;;
9520;SDS011;4798;41.574;23.734;2023-01-26T03:31:51;0.57;;;0.57;;
9520;SDS011;4798;41.574;23.734;2023-01-26T03:34:19;0.60;;;0.40;;
9520;SDS011;4798;41.574;23.734;2023-01-26T03:36:48;0.40;;;0.30;;
9520;SDS011;4798;41.574;23.734;2023-01-26T03:39:16;0.60;;;0.60;;
9520;SDS011;4798;41.574;23.734;2023-01-26T03:42:02;0.40;;;0.20;;
9520;SDS011;4798;41.574;23.734;2023-01-26T03:44:48;0.40;;;0.40;;
9520;SDS011;4798;41.574;23.734;2023-01-26T03:47:35;0.33;;;0.23;;
9520;SDS011;4798;41.574;23.734;2023-01-26T03:50:21;0.90;;;0.77;;
9520;SDS011;4798;41.574;23.734;2023-01-26T03:53:17;0.50;;;0.50;;
9520;SDS011;4798;41.574;23.734;2023-01-26T03:56:04;0.50;;;0.40;;
9520;SDS011;4798;41.574;23.734;2023-01-26T03:58:48;0.60;;;0.60;;
9520;SDS011;4798;41.574;23.734;2023-01-26T04:01:18;0.40;;;0.37;;
9520;SDS011;4798;41.574;23.734;2023-01-26T04:03:55;0.33;;;0.27;;
9520;SDS011;4798;41.574;23.734;2023-01-26T04:06:42;0.60;;;0.60;;
9520;SDS011;4798;41.574;23.734;2023-01-26T04:09:29;1.00;;;1.00;;
9520;SDS011;4798;41.574;23.734;2023-01-26T04:11:58;0.37;;;0.27;;
9520;SDS011;4798;41.574;23.734;2023-01-26T04:14:29;0.30;;;0.20;;
9520;SDS011;4798;41.574;23.734;2023-01-26T04:17:16;0.40;;;0.40;;
9520;SDS011;4798;41.574;23.734;2023-01-26T04:20:04;0.40;;;0.30;;
9520;SDS011;4798;41.574;23.734;2023-01-26T04:22:51;0.40;;;0.40;;
9520;SDS011;4798;41.574;23.734;2023-01-26T04:25:19;0.60;;;0.47;;
9520;SDS011;4798;41.574;23.734;2023-01-26T04:27:48;2.77;;;1.07;;
9520;SDS011;4798;41.574;23.734;2023-01-26T04:30:17;0.83;;;0.83;;
9520;SDS011;4798;41.574;23.734;2023-01-26T04:32:46;0.40;;;0.30;;
9520;SDS011;4798;41.574;23.734;2023-01-26T04:35:15;0.50;;;0.50;;
9520;SDS011;4798;41.574;23.734;2023-01-26T04:37:44;0.30;;;0.20;;
9520;SDS011;4798;41.574;23.734;2023-01-26T04:40:12;0.30;;;0.20;;
9520;SDS011;4798;41.574;23.734;2023-01-26T04:42:40;1.23;;;1.23;;
9520;SDS011;4798;41.574;23.734;2023-01-26T04:45:09;0.30;;;0.30;;
9520;SDS011;4798;41.574;23.734;2023-01-26T04:47:38;0.50;;;0.37;;
9520;SDS011;4798;41.574;23.734;2023-01-26T04:50:06;0.53;;;0.40;;
9520;SDS011;4798;41.574;23.734;2023-01-26T04:52:38;0.70;;;0.40;;
9520;SDS011;4798;41.574;23.734;2023-01-26T04:55:06;0.80;;;0.80;;
9520;SDS011;4798;41.574;23.734;2023-01-26T04:57:35;0.73;;;0.73;;
9520;SDS011;4798;41.574;23.734;2023-01-26T05:00:04;0.30;;;0.30;;
9520;SDS011;4798;41.574;23.734;2023-01-26T05:02:34;0.70;;;0.70;;
9520;SDS011;4798;41.574;23.734;2023-01-26T05:05:02;0.40;;;0.30;;
9520;SDS011;4798;41.574;23.734;2023-01-26T05:07:31;3.20;;;0.70;;
9520;SDS011;4798;41.574;23.734;2023-01-26T05:10:01;1.07;;;0.97;;
9520;SDS011;4798;41.574;23.734;2023-01-26T05:12:29;0.77;;;0.50;;
9520;SDS011;4798;41.574;23.734;2023-01-26T05:15:00;0.30;;;0.20;;
9520;SDS011;4798;41.574;23.734;2023-01-26T05:17:28;0.57;;;0.40;;
9520;SDS011;4798;41.574;23.734;2023-01-26T05:19:56;0.30;;;0.30;;
9520;SDS011;4798;41.574;23.734;2023-01-26T05:22:24;0.30;;;0.30;;
9520;SDS011;4798;41.574;23.734;2023-01-26T05:24:53;1.30;;;1.30;;
9520;SDS011;4798;41.574;23.734;2023-01-26T05:27:23;2.10;;;2.00;;
9520;SDS011;4798;41.574;23.734;2023-01-26T05:29:51;0.77;;;0.77;;
9520;SDS011;4798;41.574;23.734;2023-01-26T05:32:20;1.30;;;1.20;;
9520;SDS011;4798;41.574;23.734;2023-01-26T05:34:49;1.87;;;1.80;;
9520;SDS011;4798;41.574;23.734;2023-01-26T05:37:17;0.50;;;0.50;;
9520;SDS011;4798;41.574;23.734;2023-01-26T05:39:45;0.50;;;0.50;;
9520;SDS011;4798;41.574;23.734;2023-01-26T05:42:14;0.40;;;0.37;;
9520;SDS011;4798;41.574;23.734;2023-01-26T05:44:43;0.30;;;0.20;;
9520;SDS011;4798;41.574;23.734;2023-01-26T05:47:11;0.40;;;0.40;;
9520;SDS011;4798;41.574;23.734;2023-01-26T05:49:42;0.33;;;0.27;;
9520;SDS011;4798;41.574;23.734;2023-01-26T05:52:13;0.40;;;0.40;;
9520;SDS011;4798;41.574;23.734;2023-01-26T05:54:46;0.50;;;0.50;;
9520;SDS011;4798;41.574;23.734;2023-01-26T05:57:15;0.60;;;0.40;;
9520;SDS011;4798;41.574;23.734;2023-01-26T05:59:45;2.23;;;1.70;;
9520;SDS011;4798;41.574;23.734;2023-01-26T06:02:13;1.47;;;1.37;;
9520;SDS011;4798;41.574;23.734;2023-01-26T06:04:41;0.90;;;0.90;;
9520;SDS011;4798;41.574;23.734;2023-01-26T06:07:10;7.40;;;1.73;;
9520;SDS011;4798;41.574;23.734;2023-01-26T06:09:39;2.07;;;1.97;;
9520;SDS011;4798;41.574;23.734;2023-01-26T06:12:11;1.47;;;1.43;;
9520;SDS011;4798;41.574;23.734;2023-01-26T06:14:42;0.40;;;0.30;;
9520;SDS011;4798;41.574;23.734;2023-01-26T06:17:14;0.40;;;0.30;;
9520;SDS011;4798;41.574;23.734;2023-01-26T06:19:44;0.33;;;0.30;;
9520;SDS011;4798;41.574;23.734;2023-01-26T06:22:12;1.90;;;1.90;;
9520;SDS011;4798;41.574;23.734;2023-01-26T06:24:41;4.47;;;0.70;;
9520;SDS011;4798;41.574;23.734;2023-01-26T06:27:10;0.50;;;0.30;;
9520;SDS011;4798;41.574;23.734;2023-01-26T06:29:39;0.37;;;0.27;;
9520;SDS011;4798;41.574;23.734;2023-01-26T06:32:08;0.70;;;0.70;;
9520;SDS011;4798;41.574;23.734;2023-01-26T06:34:38;2.17;;;0.70;;
9520;SDS011;4798;41.574;23.734;2023-01-26T06:37:07;1.80;;;0.53;;
9520;SDS011;4798;41.574;23.734;2023-01-26T06:39:36;0.50;;;0.50;;
9520;SDS011;4798;41.574;23.734;2023-01-26T06:42:04;0.93;;;0.50;;
9520;SDS011;4798;41.574;23.734;2023-01-26T06:44:35;1.27;;;1.27;;
9520;SDS011;4798;41.574;23.734;2023-01-26T06:47:04;0.43;;;0.43;;
9520;SDS011;4798;41.574;23.734;2023-01-26T06:49:33;0.50;;;0.50;;
9520;SDS011;4798;41.574;23.734;2023-01-26T06:52:04;0.80;;;0.80;;
9520;SDS011;4798;41.574;23.734;2023-01-26T06:54:48;0.40;;;0.30;;
9520;SDS011;4798;41.574;23.734;2023-01-26T06:57:20;2.30;;;0.83;;
9520;SDS011;4798;41.574;23.734;2023-01-26T06:59:48;0.53;;;0.47;;
9520;SDS011;4798;41.574;23.734;2023-01-26T07:02:17;0.70;;;0.50;;
9520;SDS011;4798;41.574;23.734;2023-01-26T07:04:47;1.13;;;0.50;;
9520;SDS011;4798;41.574;23.734;2023-01-26T07:07:18;0.90;;;0.90;;
9520;SDS011;4798;41.574;23.734;2023-01-26T07:09:46;1.17;;;0.67;;
9520;SDS011;4798;41.574;23.734;2023-01-26T07:12:15;0.73;;;0.73;;
9520;SDS011;4798;41.574;23.734;2023-01-26T07:14:43;0.73;;;0.73;;
9520;SDS011;4798;41.574;23.734;2023-01-26T07:17:11;0.50;;;0.50;;
9520;SDS011;4798;41.574;23.734;2023-01-26T07:19:40;4.60;;;1.00;;
9520;SDS011;4798;41.574;23.734;2023-01-26T07:22:08;7.33;;;1.70;;
9520;SDS011;4798;41.574;23.734;2023-01-26T07:24:38;1.13;;;0.70;;
9520;SDS011;4798;41.574;23.734;2023-01-26T07:27:06;1.93;;;1.30;;
9520;SDS011;4798;41.574;23.734;2023-01-26T07:29:34;4.23;;;0.57;;
9520;SDS011;4798;41.574;23.734;2023-01-26T07:32:03;1.23;;;0.40;;
9520;SDS011;4798;41.574;23.734;2023-01-26T07:34:31;1.27;;;1.27;;
9520;SDS011;4798;41.574;23.734;2023-01-26T07:37:00;1.33;;;1.23;;
9520;SDS011;4798;41.574;23.734;2023-01-26T07:39:28;6.37;;;2.63;;
9520;SDS011;4798;41.574;23.734;2023-01-26T07:41:58;0.40;;;0.30;;
9520;SDS011;4798;41.574;23.734;2023-01-26T07:44:26;1.00;;;1.00;;
9520;SDS011;4798;41.574;23.734;2023-01-26T07:46:54;1.50;;;0.87;;
9520;SDS011;4798;41.574;23.734;2023-01-26T07:49:24;3.07;;;0.60;;
9520;SDS011;4798;41.574;23.734;2023-01-26T07:51:52;1.57;;;1.43;;
9520;SDS011;4798;41.574;23.734;2023-01-26T07:54:20;2.90;;;2.80;;
9520;SDS011;4798;41.574;23.734;2023-01-26T07:56:50;3.53;;;2.70;;
9520;SDS011;4798;41.574;23.734;2023-01-26T07:59:21;10.57;;;2.57;;
9520;SDS011;4798;41.574;23.734;2023-01-26T08:01:50;1.37;;;0.67;;
9520;SDS011;4798;41.574;23.734;2023-01-26T08:04:19;6.27;;;2.80;;
9520;SDS011;4798;41.574;23.734;2023-01-26T08:06:49;1.23;;;1.20;;
9520;SDS011;4798;41.574;23.734;2023-01-26T08:09:18;2.37;;;2.13;;
9520;SDS011;4798;41.574;23.734;2023-01-26T08:11:46;1.80;;;1.70;;
9520;SDS011;4798;41.574;23.734;2023-01-26T08:14:15;1.50;;;1.30;;
9520;SDS011;4798;41.574;23.734;2023-01-26T08:16:44;9.57;;;4.30;;
9520;SDS011;4798;41.574;23.734;2023-01-26T08:19:15;0.60;;;0.47;;
9520;SDS011;4798;41.574;23.734;2023-01-26T08:21:43;2.47;;;2.37;;
9520;SDS011;4798;41.574;23.734;2023-01-26T08:24:11;1.13;;;1.10;;
9520;SDS011;4798;41.574;23.734;2023-01-26T08:26:40;2.10;;;0.60;;
9520;SDS011;4798;41.574;23.734;2023-01-26T08:29:08;7.53;;;1.60;;
9520;SDS011;4798;41.574;23.734;2023-01-26T08:31:36;1.23;;;1.23;;
9520;SDS011;4798;41.574;23.734;2023-01-26T08:34:08;1.10;;;0.90;;
9520;SDS011;4798;41.574;23.734;2023-01-26T08:36:37;5.33;;;5.13;;
9520;SDS011;4798;41.574;23.734;2023-01-26T08:39:05;1.87;;;1.83;;
9520;SDS011;4798;41.574;23.734;2023-01-26T08:41:34;4.80;;;2.13;;
9520;SDS011;4798;41.574;23.734;2023-01-26T08:44:02;2.70;;;2.60;;
9520;SDS011;4798;41.574;23.734;2023-01-26T08:46:31;2.70;;;2.50;;
9520;SDS011;4798;41.574;23.734;2023-01-26T08:48:59;1.80;;;1.70;;
9520;SDS011;4798;41.574;23.734;2023-01-26T08:51:29;1.60;;;1.60;;
9520;SDS011;4798;41.574;23.734;2023-01-26T08:53:58;0.73;;;0.73;;
9520;SDS011;4798;41.574;23.734;2023-01-26T08:56:26;2.93;;;1.33;;
9520;SDS011;4798;41.574;23.734;2023-01-26T08:58:54;0.93;;;0.93;;
9520;SDS011;4798;41.574;23.734;2023-01-26T09:01:22;0.40;;;0.40;;
9520;SDS011;4798;41.574;23.734;2023-01-26T09:03:51;0.73;;;0.73;;
9520;SDS011;4798;41.574;23.734;2023-01-26T09:06:21;1.00;;;0.90;;
9520;SDS011;4798;41.574;23.734;2023-01-26T09:08:51;0.40;;;0.40;;
9520;SDS011;4798;41.574;23.734;2023-01-26T09:11:19;1.20;;;1.13;;
9520;SDS011;4798;41.574;23.734;2023-01-26T09:13:48;0.50;;;0.33;;
9520;SDS011;4798;41.574;23.734;2023-01-26T09:16:22;0.60;;;0.60;;
9520;SDS011;4798;41.574;23.734;2023-01-26T09:18:51;3.87;;;1.67;;
9520;SDS011;4798;41.574;23.734;2023-01-26T09:21:20;2.00;;;1.27;;
9520;SDS011;4798;41.574;23.734;2023-01-26T09:23:51;0.90;;;0.90;;
9520;SDS011;4798;41.574;23.734;2023-01-26T09:26:19;2.20;;;1.47;;
9520;SDS011;4798;41.574;23.734;2023-01-26T09:28:49;0.50;;;0.50;;
9520;SDS011;4798;41.574;23.734;2023-01-26T09:31:18;0.90;;;0.90;;
9520;SDS011;4798;41.574;23.734;2023-01-26T09:33:46;2.17;;;2.10;;
9520;SDS011;4798;41.574;23.734;2023-01-26T09:36:15;0.80;;;0.80;;
9520;SDS011;4798;41.574;23.734;2023-01-26T09:38:44;4.80;;;1.53;;
9520;SDS011;4798;41.574;23.734;2023-01-26T09:41:19;4.07;;;2.10;;
9520;SDS011;4798;41.574;23.734;2023-01-26T09:44:06;2.00;;;1.37;;
9520;SDS011;4798;41.574;23.734;2023-01-26T09:46:39;3.70;;;0.93;;
9520;SDS011;4798;41.574;23.734;2023-01-26T09:49:20;0.93;;;0.93;;
9520;SDS011;4798;41.574;23.734;2023-01-26T09:51:56;2.17;;;1.53;;
9520;SDS011;4798;41.574;23.734;2023-01-26T09:54:33;2.07;;;1.97;;
9520;SDS011;4798;41.574;23.734;2023-01-26T09:57:11;3.03;;;0.60;;
9520;SDS011;4798;41.574;23.734;2023-01-26T09:59:42;1.57;;;1.50;;
9520;SDS011;4798;41.574;23.734;2023-01-26T10:02:18;7.80;;;2.40;;
9520;SDS011;4798;41.574;23.734;2023-01-26T10:05:06;2.93;;;2.73;;
9520;SDS011;4798;41.574;23.734;2023-01-26T10:07:42;1.00;;;1.00;;
9520;SDS011;4798;41.574;23.734;2023-01-26T10:10:14;1.03;;;1.03;;
9520;SDS011;4798;41.574;23.734;2023-01-26T10:12:47;3.50;;;1.27;;
9520;SDS011;4798;41.574;23.734;2023-01-26T10:15:20;1.27;;;1.17;;
9520;SDS011;4798;41.574;23.734;2023-01-26T10:17:55;1.63;;;0.60;;
9520;SDS011;4798;41.574;23.734;2023-01-26T10:20:27;2.10;;;1.63;;
9520;SDS011;4798;41.574;23.734;2023-01-26T10:23:00;2.23;;;2.10;;
9520;SDS011;4798;41.574;23.734;2023-01-26T10:25:32;2.20;;;2.10;;
9520;SDS011;4798;41.574;23.734;2023-01-26T10:28:06;0.73;;;0.73;;
9520;SDS011;4798;41.574;23.734;2023-01-26T10:30:40;0.50;;;0.50;;
9520;SDS011;4798;41.574;23.734;2023-01-26T10:33:13;1.00;;;1.00;;
9520;SDS011;4798;41.574;23.734;2023-01-26T10:35:45;0.50;;;0.47;;
9520;SDS011;4798;41.574;23.734;2023-01-26T10:41:20;2.40;;;0.77;;
9520;SDS011;4798;41.574;23.734;2023-01-26T10:43:52;0.50;;;0.50;;
9520;SDS011;4798;41.574;23.734;2023-01-26T10:46:24;0.53;;;0.53;;
9520;SDS011;4798;41.574;23.734;2023-01-26T10:48:55;0.60;;;0.60;;
9520;SDS011;4798;41.574;23.734;2023-01-26T10:51:26;1.27;;;1.27;;
9520;SDS011;4798;41.574;23.734;2023-01-26T10:56:48;0.93;;;0.93;;
9520;SDS011;4798;41.574;23.734;2023-01-26T10:59:27;1.27;;;1.17;;
9520;SDS011;4798;41.574;23.734;2023-01-26T11:01:59;1.63;;;1.53;;
9520;SDS011;4798;41.574;23.734;2023-01-26T11:04:29;1.63;;;1.53;;
9520;SDS011;4798;41.574;23.734;2023-01-26T11:09:52;0.83;;;0.83;;
9520;SDS011;4798;41.574;23.734;2023-01-26T11:12:23;1.67;;;1.53;;
9520;SDS011;4798;41.574;23.734;2023-01-26T11:15:03;0.87;;;0.87;;
9520;SDS011;4798;41.574;23.734;2023-01-26T11:17:43;8.53;;;1.37;;
9520;SDS011;4798;41.574;23.734;2023-01-26T11:20:31;2.20;;;2.10;;
9520;SDS011;4798;41.574;23.734;2023-01-26T11:23:13;3.53;;;2.30;;
9520;SDS011;4798;41.574;23.734;2023-01-26T11:25:59;2.77;;;2.67;;
9520;SDS011;4798;41.574;23.734;2023-01-26T11:28:54;4.30;;;2.07;;
9520;SDS011;4798;41.574;23.734;2023-01-26T11:31:38;1.10;;;1.10;;
9520;SDS011;4798;41.574;23.734;2023-01-26T11:34:17;0.93;;;0.93;;
9520;SDS011;4798;41.574;23.734;2023-01-26T11:36:58;1.57;;;1.50;;
9520;SDS011;4798;41.574;23.734;2023-01-26T11:39:44;1.37;;;1.27;;
9520;SDS011;4798;41.574;23.734;2023-01-26T11:42:23;1.23;;;1.13;;
9520;SDS011;4798;41.574;23.734;2023-01-26T11:45:06;1.53;;;1.37;;
9520;SDS011;4798;41.574;23.734;2023-01-26T11:47:52;9.00;;;0.77;;
9520;SDS011;4798;41.574;23.734;2023-01-26T11:50:32;0.70;;;0.70;;
9520;SDS011;4798;41.574;23.734;2023-01-26T11:53:19;0.70;;;0.70;;
9520;SDS011;4798;41.574;23.734;2023-01-26T11:56:06;3.67;;;3.40;;
9520;SDS011;4798;41.574;23.734;2023-01-26T11:58:44;0.70;;;0.70;;
9520;SDS011;4798;41.574;23.734;2023-01-26T12:01:20;0.97;;;0.97;;
9520;SDS011;4798;41.574;23.734;2023-01-26T12:03:55;0.60;;;0.60;;
9520;SDS011;4798;41.574;23.734;2023-01-26T12:06:27;0.60;;;0.60;;
9520;SDS011;4798;41.574;23.734;2023-01-26T12:09:02;1.60;;;1.47;;
9520;SDS011;4798;41.574;23.734;2023-01-26T12:11:37;1.80;;;1.70;;
9520;SDS011;4798;41.574;23.734;2023-01-26T12:14:15;14.83;;;4.23;;
9520;SDS011;4798;41.574;23.734;2023-01-26T12:17:00;2.63;;;2.53;;
9520;SDS011;4798;41.574;23.734;2023-01-26T12:19:47;2.97;;;2.77;;
9520;SDS011;4798;41.574;23.734;2023-01-26T12:22:21;2.67;;;2.47;;
9520;SDS011;4798;41.574;23.734;2023-01-26T12:25:01;4.80;;;4.60;;
9520;SDS011;4798;41.574;23.734;2023-01-26T12:27:46;4.90;;;4.60;;
9520;SDS011;4798;41.574;23.734;2023-01-26T12:30:23;16.90;;;2.90;;
9520;SDS011;4798;41.574;23.734;2023-01-26T12:32:58;3.43;;;3.23;;
9520;SDS011;4798;41.574;23.734;2023-01-26T12:35:31;5.10;;;4.53;;
9520;SDS011;4798;41.574;23.734;2023-01-26T12:38:09;4.20;;;3.30;;
9520;SDS011;4798;41.574;23.734;2023-01-26T12:40:48;2.93;;;2.00;;
9520;SDS011;4798;41.574;23.734;2023-01-26T12:43:34;2.00;;;1.90;;
9520;SDS011;4798;41.574;23.734;2023-01-26T12:46:11;1.87;;;1.77;;
9520;SDS011;4798;41.574;23.734;2023-01-26T12:48:41;1.00;;;1.00;;
9520;SDS011;4798;41.574;23.734;2023-01-26T12:51:16;0.93;;;0.93;;
9520;SDS011;4798;41.574;23.734;2023-01-26T12:53:51;0.97;;;0.97;;
9520;SDS011;4798;41.574;23.734;2023-01-26T12:56:25;0.30;;;0.30;;
9520;SDS011;4798;41.574;23.734;2023-01-26T12:58:58;1.60;;;1.50;;
9520;SDS011;4798;41.574;23.734;2023-01-26T13:01:36;8.33;;;0.40;;
9520;SDS011;4798;41.574;23.734;2023-01-26T13:04:07;0.40;;;0.40;;
9520;SDS011;4798;41.574;23.734;2023-01-26T13:06:39;1.47;;;0.50;;
9520;SDS011;4798;41.574;23.734;2023-01-26T13:09:18;0.40;;;0.40;;
9520;SDS011;4798;41.574;23.734;2023-01-26T13:11:50;0.67;;;0.60;;
9520;SDS011;4798;41.574;23.734;2023-01-26T13:14:23;1.33;;;1.33;;
9520;SDS011;4798;41.574;23.734;2023-01-26T13:20:25;0.87;;;0.87;;
9520;SDS011;4798;41.574;23.734;2023-01-26T13:23:40;0.90;;;0.90;;
9520;SDS011;4798;41.574;23.734;2023-01-26T13:26:13;0.50;;;0.50;;
9520;SDS011;4798;41.574;23.734;2023-01-26T13:28:44;2.67;;;1.53;;
9520;SDS011;4798;41.574;23.734;2023-01-26T13:31:27;2.40;;;1.70;;
9520;SDS011;4798;41.574;23.734;2023-01-26T13:33:58;0.70;;;0.70;;
9520;SDS011;4798;41.574;23.734;2023-01-26T13:36:31;3.80;;;1.33;;
9520;SDS011;4798;41.574;23.734;2023-01-26T13:39:08;1.33;;;1.23;;
9520;SDS011;4798;41.574;23.734;2023-01-26T13:41:44;2.07;;;2.00;;
9520;SDS011;4798;41.574;23.734;2023-01-26T13:44:15;2.30;;;1.90;;
9520;SDS011;4798;41.574;23.734;2023-01-26T13:46:48;18.53;;;2.30;;
9520;SDS011;4798;41.574;23.734;2023-01-26T13:49:24;1.37;;;1.13;;
9520;SDS011;4798;41.574;23.734;2023-01-26T13:51:53;3.43;;;3.03;;
9520;SDS011;4798;41.574;23.734;2023-01-26T13:54:23;3.20;;;1.77;;
9520;SDS011;4798;41.574;23.734;2023-01-26T13:57:00;3.43;;;3.23;;
9520;SDS011;4798;41.574;23.734;2023-01-26T13:59:29;1.90;;;1.60;;
9520;SDS011;4798;41.574;23.734;2023-01-26T14:01:59;5.03;;;1.20;;
9520;SDS011;4798;41.574;23.734;2023-01-26T14:04:28;3.63;;;3.33;;
9520;SDS011;4798;41.574;23.734;2023-01-26T14:06:58;30.63;;;3.53;;
9520;SDS011;4798;41.574;23.734;2023-01-26T14:09:34;2.77;;;1.10;;
9520;SDS011;4798;41.574;23.734;2023-01-26T14:12:12;1.70;;;1.60;;
9520;SDS011;4798;41.574;23.734;2023-01-26T14:14:51;2.20;;;1.10;;
9520;SDS011;4798;41.574;23.734;2023-01-26T14:17:23;3.37;;;3.13;;
9520;SDS011;4798;41.574;23.734;2023-01-26T14:19:53;7.83;;;4.20;;
9520;SDS011;4798;41.574;23.734;2023-01-26T14:22:22;2.97;;;2.57;;
9520;SDS011;4798;41.574;23.734;2023-01-26T14:24:52;5.00;;;4.47;;
9520;SDS011;4798;41.574;23.734;2023-01-26T14:27:31;2.17;;;2.03;;
9520;SDS011;4798;41.574;23.734;2023-01-26T14:30:05;2.90;;;2.80;;
9520;SDS011;4798;41.574;23.734;2023-01-26T14:32:49;3.13;;;3.03;;
9520;SDS011;4798;41.574;23.734;2023-01-26T14:35:26;3.67;;;2.73;;
9520;SDS011;4798;41.574;23.734;2023-01-26T14:38:03;6.40;;;3.50;;
9520;SDS011;4798;41.574;23.734;2023-01-26T14:40:33;2.60;;;2.40;;
9520;SDS011;4798;41.574;23.734;2023-01-26T14:43:02;2.20;;;2.00;;
9520;SDS011;4798;41.574;23.734;2023-01-26T14:45:30;2.07;;;1.97;;
9520;SDS011;4798;41.574;23.734;2023-01-26T14:48:00;1.43;;;1.33;;
9520;SDS011;4798;41.574;23.734;2023-01-26T14:50:33;1.60;;;1.50;;
9520;SDS011;4798;41.574;23.734;2023-01-26T14:53:03;3.40;;;1.70;;
9520;SDS011;4798;41.574;23.734;2023-01-26T14:55:33;3.07;;;2.87;;
9520;SDS011;4798;41.574;23.734;2023-01-26T14:58:10;9.47;;;5.40;;
9520;SDS011;4798;41.574;23.734;2023-01-26T15:00:43;6.60;;;5.30;;
9520;SDS011;4798;41.574;23.734;2023-01-26T15:03:17;2.93;;;2.80;;
9520;SDS011;4798;41.574;23.734;2023-01-26T15:06:02;5.20;;;3.73;;
9520;SDS011;4798;41.574;23.734;2023-01-26T15:08:34;4.47;;;4.20;;
9520;SDS011;4798;41.574;23.734;2023-01-26T15:11:05;4.70;;;4.40;;
9520;SDS011;4798;41.574;23.734;2023-01-26T15:13:53;8.13;;;7.40;;
9520;SDS011;4798;41.574;23.734;2023-01-26T15:16:22;8.10;;;5.00;;
9520;SDS011;4798;41.574;23.734;2023-01-26T15:18:58;6.93;;;6.53;;
9520;SDS011;4798;41.574;23.734;2023-01-26T15:21:30;3.43;;;2.90;;
9520;SDS011;4798;41.574;23.734;2023-01-26T15:24:00;19.87;;;6.53;;
9520;SDS011;4798;41.574;23.734;2023-01-26T15:26:32;7.50;;;3.23;;
9520;SDS011;4798;41.574;23.734;2023-01-26T15:29:02;6.90;;;6.40;;
9520;SDS011;4798;41.574;23.734;2023-01-26T15:31:33;10.70;;;4.90;;
9520;SDS011;4798;41.574;23.734;2023-01-26T15:34:03;5.60;;;5.20;;
9520;SDS011;4798;41.574;23.734;2023-01-26T15:36:33;5.53;;;5.07;;
9520;SDS011;4798;41.574;23.734;2023-01-26T15:39:13;16.57;;;7.07;;
9520;SDS011;4798;41.574;23.734;2023-01-26T15:41:45;6.87;;;5.70;;
9520;SDS011;4798;41.574;23.734;2023-01-26T15:44:28;16.47;;;8.90;;
9520;SDS011;4798;41.574;23.734;2023-01-26T15:46:56;12.93;;;9.73;;